sensor_id;sensor_type;location;lat;lon;timestamp;temperature;humidity
7666;DHT22;3875;46.562;4.898;2024-01-27T00:01:33;8.30;98.60
7666;DHT22;3875;46.562;4.898;2024-01-27T00:03:59;8.30;98.60
7666;DHT22;3875;46.562;4.898;2024-01-27T00:06:25;8.30;98.60
7666;DHT22;3875;46.562;4.898;2024-01-27T00:08:50;8.30;98.60
7666;DHT22;3875;46.562;4.898;2024-01-27T00:11:16;8.30;98.60
7666;DHT22;3875;46.562;4.898;2024-01-27T00:13:42;8.30;98.50
7666;DHT22;3875;46.562;4.898;2024-01-27T00:16:08;8.20;98.40
7666;DHT22;3875;46.562;4.898;2024-01-27T00:18:38;8.20;98.40
7666;DHT22;3875;46.562;4.898;2024-01-27T00:21:05;8.10;98.60
7666;DHT22;3875;46.562;4.898;2024-01-27T00:23:31;8.10;98.60
7666;DHT22;3875;46.562;4.898;2024-01-27T00:25:58;8.10;98.60
7666;DHT22;3875;46.562;4.898;2024-01-27T00:28:23;8.00;98.60
7666;DHT22;3875;46.562;4.898;2024-01-27T00:30:49;8.00;98.50
7666;DHT22;3875;46.562;4.898;2024-01-27T00:33:15;7.90;98.40
7666;DHT22;3875;46.562;4.898;2024-01-27T00:35:40;7.80;98.30
7666;DHT22;3875;46.562;4.898;2024-01-27T00:38:06;7.80;98.10
7666;DHT22;3875;46.562;4.898;2024-01-27T00:40:32;7.70;98.20
7666;DHT22;3875;46.562;4.898;2024-01-27T00:42:57;7.60;98.10
7666;DHT22;3875;46.562;4.898;2024-01-27T00:45:24;7.60;97.90
7666;DHT22;3875;46.562;4.898;2024-01-27T00:47:50;7.60;97.90
7666;DHT22;3875;46.562;4.898;2024-01-27T00:50:16;7.50;97.80
7666;DHT22;3875;46.562;4.898;2024-01-27T00:52:41;7.50;97.70
7666;DHT22;3875;46.562;4.898;2024-01-27T00:55:07;7.40;97.60
7666;DHT22;3875;46.562;4.898;2024-01-27T00:57:36;7.40;97.50
7666;DHT22;3875;46.562;4.898;2024-01-27T01:00:03;7.30;97.40
7666;DHT22;3875;46.562;4.898;2024-01-27T01:02:29;7.30;97.30
7666;DHT22;3875;46.562;4.898;2024-01-27T01:04:55;7.20;97.10
7666;DHT22;3875;46.562;4.898;2024-01-27T01:07:20;7.20;97.10
7666;DHT22;3875;46.562;4.898;2024-01-27T01:09:46;7.10;97.10
7666;DHT22;3875;46.562;4.898;2024-01-27T01:12:12;7.10;97.20
7666;DHT22;3875;46.562;4.898;2024-01-27T01:14:38;7.00;97.20
7666;DHT22;3875;46.562;4.898;2024-01-27T01:17:05;7.00;97.00
7666;DHT22;3875;46.562;4.898;2024-01-27T01:19:30;7.00;96.80
7666;DHT22;3875;46.562;4.898;2024-01-27T01:21:56;6.90;96.70
7666;DHT22;3875;46.562;4.898;2024-01-27T01:24:22;6.90;96.60
7666;DHT22;3875;46.562;4.898;2024-01-27T01:26:47;6.90;96.70
7666;DHT22;3875;46.562;4.898;2024-01-27T01:29:13;6.90;96.70
7666;DHT22;3875;46.562;4.898;2024-01-27T01:31:44;6.80;96.80
7666;DHT22;3875;46.562;4.898;2024-01-27T01:34:10;6.80;96.70
7666;DHT22;3875;46.562;4.898;2024-01-27T01:36:35;6.80;96.70
7666;DHT22;3875;46.562;4.898;2024-01-27T01:39:01;6.80;96.80
7666;DHT22;3875;46.562;4.898;2024-01-27T01:41:27;6.80;96.90
7666;DHT22;3875;46.562;4.898;2024-01-27T01:43:53;6.70;96.90
7666;DHT22;3875;46.562;4.898;2024-01-27T01:46:18;6.60;97.00
7666;DHT22;3875;46.562;4.898;2024-01-27T01:48:44;6.60;97.10
7666;DHT22;3875;46.562;4.898;2024-01-27T01:51:10;6.60;97.10
7666;DHT22;3875;46.562;4.898;2024-01-27T01:53:37;6.50;97.10
7666;DHT22;3875;46.562;4.898;2024-01-27T01:56:02;6.50;97.00
7666;DHT22;3875;46.562;4.898;2024-01-27T01:58:29;6.40;97.00
7666;DHT22;3875;46.562;4.898;2024-01-27T02:01:00;6.40;97.00
7666;DHT22;3875;46.562;4.898;2024-01-27T02:03:26;6.40;97.10
7666;DHT22;3875;46.562;4.898;2024-01-27T02:05:52;6.40;97.10
7666;DHT22;3875;46.562;4.898;2024-01-27T02:08:18;6.30;97.10
7666;DHT22;3875;46.562;4.898;2024-01-27T02:10:43;6.30;97.00
7666;DHT22;3875;46.562;4.898;2024-01-27T02:13:20;6.30;97.10
7666;DHT22;3875;46.562;4.898;2024-01-27T02:15:46;6.20;97.10
7666;DHT22;3875;46.562;4.898;2024-01-27T02:18:13;6.20;97.10
7666;DHT22;3875;46.562;4.898;2024-01-27T02:20:38;6.10;97.10
7666;DHT22;3875;46.562;4.898;2024-01-27T02:23:05;6.10;97.10
7666;DHT22;3875;46.562;4.898;2024-01-27T02:25:31;6.10;97.00
7666;DHT22;3875;46.562;4.898;2024-01-27T02:27:57;6.00;96.90
7666;DHT22;3875;46.562;4.898;2024-01-27T02:30:23;6.00;96.90
7666;DHT22;3875;46.562;4.898;2024-01-27T02:32:48;6.00;96.90
7666;DHT22;3875;46.562;4.898;2024-01-27T02:35:15;5.90;97.00
7666;DHT22;3875;46.562;4.898;2024-01-27T02:37:42;5.90;96.90
7666;DHT22;3875;46.562;4.898;2024-01-27T02:40:08;5.80;96.90
7666;DHT22;3875;46.562;4.898;2024-01-27T02:42:35;5.80;97.00
7666;DHT22;3875;46.562;4.898;2024-01-27T02:45:01;5.80;97.00
7666;DHT22;3875;46.562;4.898;2024-01-27T02:47:27;5.80;96.80
7666;DHT22;3875;46.562;4.898;2024-01-27T02:49:53;5.80;96.80
7666;DHT22;3875;46.562;4.898;2024-01-27T02:52:19;5.70;96.80
7666;DHT22;3875;46.562;4.898;2024-01-27T02:54:45;5.70;96.80
7666;DHT22;3875;46.562;4.898;2024-01-27T02:57:11;5.70;96.80
7666;DHT22;3875;46.562;4.898;2024-01-27T02:59:37;5.70;96.70
7666;DHT22;3875;46.562;4.898;2024-01-27T03:02:05;5.70;96.60
7666;DHT22;3875;46.562;4.898;2024-01-27T03:04:31;5.70;96.60
7666;DHT22;3875;46.562;4.898;2024-01-27T03:06:56;5.70;96.60
7666;DHT22;3875;46.562;4.898;2024-01-27T03:09:22;5.60;96.50
7666;DHT22;3875;46.562;4.898;2024-01-27T03:11:48;5.60;96.50
7666;DHT22;3875;46.562;4.898;2024-01-27T03:14:13;5.60;96.40
7666;DHT22;3875;46.562;4.898;2024-01-27T03:16:40;5.60;96.30
7666;DHT22;3875;46.562;4.898;2024-01-27T03:19:05;5.50;96.30
7666;DHT22;3875;46.562;4.898;2024-01-27T03:21:32;5.50;96.50
7666;DHT22;3875;46.562;4.898;2024-01-27T03:23:58;5.50;96.40
7666;DHT22;3875;46.562;4.898;2024-01-27T03:26:23;5.50;96.20
7666;DHT22;3875;46.562;4.898;2024-01-27T03:28:49;5.50;96.20
7666;DHT22;3875;46.562;4.898;2024-01-27T03:31:14;5.50;96.10
7666;DHT22;3875;46.562;4.898;2024-01-27T03:33:40;5.50;96.10
7666;DHT22;3875;46.562;4.898;2024-01-27T03:36:10;5.50;96.00
7666;DHT22;3875;46.562;4.898;2024-01-27T03:38:37;5.50;96.00
7666;DHT22;3875;46.562;4.898;2024-01-27T03:41:03;5.40;95.90
7666;DHT22;3875;46.562;4.898;2024-01-27T03:43:30;5.40;96.00
7666;DHT22;3875;46.562;4.898;2024-01-27T03:45:57;5.40;96.00
7666;DHT22;3875;46.562;4.898;2024-01-27T03:48:23;5.40;95.80
7666;DHT22;3875;46.562;4.898;2024-01-27T03:50:48;5.40;95.60
7666;DHT22;3875;46.562;4.898;2024-01-27T03:53:14;5.40;95.60
7666;DHT22;3875;46.562;4.898;2024-01-27T03:55:40;5.40;95.70
7666;DHT22;3875;46.562;4.898;2024-01-27T03:58:06;5.40;95.50
7666;DHT22;3875;46.562;4.898;2024-01-27T04:00:32;5.30;95.50
7666;DHT22;3875;46.562;4.898;2024-01-27T04:03:01;5.30;95.10
7666;DHT22;3875;46.562;4.898;2024-01-27T04:05:29;5.20;95.00
7666;DHT22;3875;46.562;4.898;2024-01-27T04:07:55;5.20;95.00
7666;DHT22;3875;46.562;4.898;2024-01-27T04:10:21;5.20;94.90
7666;DHT22;3875;46.562;4.898;2024-01-27T04:12:47;5.10;94.80
7666;DHT22;3875;46.562;4.898;2024-01-27T04:15:13;5.10;95.00
7666;DHT22;3875;46.562;4.898;2024-01-27T04:17:40;5.00;95.00
7666;DHT22;3875;46.562;4.898;2024-01-27T04:20:06;5.00;94.90
7666;DHT22;3875;46.562;4.898;2024-01-27T04:22:35;4.90;94.90
7666;DHT22;3875;46.562;4.898;2024-01-27T04:25:01;4.90;95.00
7666;DHT22;3875;46.562;4.898;2024-01-27T04:27:27;4.90;95.10
7666;DHT22;3875;46.562;4.898;2024-01-27T04:29:53;4.80;95.10
7666;DHT22;3875;46.562;4.898;2024-01-27T04:32:19;4.80;95.00
7666;DHT22;3875;46.562;4.898;2024-01-27T04:34:46;4.80;95.20
7666;DHT22;3875;46.562;4.898;2024-01-27T04:37:12;4.80;95.10
7666;DHT22;3875;46.562;4.898;2024-01-27T04:39:38;4.70;95.10
7666;DHT22;3875;46.562;4.898;2024-01-27T04:42:04;4.70;95.20
7666;DHT22;3875;46.562;4.898;2024-01-27T04:44:31;4.70;95.20
7666;DHT22;3875;46.562;4.898;2024-01-27T04:46:57;4.70;95.20
7666;DHT22;3875;46.562;4.898;2024-01-27T04:49:23;4.70;95.20
7666;DHT22;3875;46.562;4.898;2024-01-27T04:51:48;4.70;95.20
7666;DHT22;3875;46.562;4.898;2024-01-27T04:54:14;4.70;95.20
7666;DHT22;3875;46.562;4.898;2024-01-27T04:56:40;4.60;95.10
7666;DHT22;3875;46.562;4.898;2024-01-27T04:59:05;4.60;95.20
7666;DHT22;3875;46.562;4.898;2024-01-27T05:01:32;4.50;95.20
7666;DHT22;3875;46.562;4.898;2024-01-27T05:03:57;4.50;95.30
7666;DHT22;3875;46.562;4.898;2024-01-27T05:06:23;4.40;95.40
7666;DHT22;3875;46.562;4.898;2024-01-27T05:08:48;4.40;95.30
7666;DHT22;3875;46.562;4.898;2024-01-27T05:11:16;4.40;95.50
7666;DHT22;3875;46.562;4.898;2024-01-27T05:13:43;4.40;95.50
7666;DHT22;3875;46.562;4.898;2024-01-27T05:16:09;4.30;95.70
7666;DHT22;3875;46.562;4.898;2024-01-27T05:18:34;4.30;95.70
7666;DHT22;3875;46.562;4.898;2024-01-27T05:21:00;4.30;95.70
7666;DHT22;3875;46.562;4.898;2024-01-27T05:23:26;4.30;95.60
7666;DHT22;3875;46.562;4.898;2024-01-27T05:25:52;4.20;95.60
7666;DHT22;3875;46.562;4.898;2024-01-27T05:28:18;4.20;95.70
7666;DHT22;3875;46.562;4.898;2024-01-27T05:30:44;4.20;95.90
7666;DHT22;3875;46.562;4.898;2024-01-27T05:33:10;4.10;95.90
7666;DHT22;3875;46.562;4.898;2024-01-27T05:35:35;4.10;96.00
7666;DHT22;3875;46.562;4.898;2024-01-27T05:38:01;4.10;96.10
7666;DHT22;3875;46.562;4.898;2024-01-27T05:40:27;4.10;96.20
7666;DHT22;3875;46.562;4.898;2024-01-27T05:42:53;4.10;96.30
7666;DHT22;3875;46.562;4.898;2024-01-27T05:45:20;4.10;96.30
7666;DHT22;3875;46.562;4.898;2024-01-27T05:47:45;4.10;96.40
7666;DHT22;3875;46.562;4.898;2024-01-27T05:50:11;4.10;96.50
7666;DHT22;3875;46.562;4.898;2024-01-27T05:52:37;4.10;96.60
7666;DHT22;3875;46.562;4.898;2024-01-27T05:55:03;4.10;96.60
7666;DHT22;3875;46.562;4.898;2024-01-27T05:57:32;4.10;96.80
7666;DHT22;3875;46.562;4.898;2024-01-27T05:59:57;4.10;97.10
7666;DHT22;3875;46.562;4.898;2024-01-27T06:02:23;4.10;97.10
7666;DHT22;3875;46.562;4.898;2024-01-27T06:04:49;4.10;97.00
7666;DHT22;3875;46.562;4.898;2024-01-27T06:07:15;4.10;96.80
7666;DHT22;3875;46.562;4.898;2024-01-27T06:09:40;4.00;96.70
7666;DHT22;3875;46.562;4.898;2024-01-27T06:12:06;4.00;96.60
7666;DHT22;3875;46.562;4.898;2024-01-27T06:14:32;4.00;96.70
7666;DHT22;3875;46.562;4.898;2024-01-27T06:16:57;4.00;96.70
7666;DHT22;3875;46.562;4.898;2024-01-27T06:19:23;3.90;96.60
7666;DHT22;3875;46.562;4.898;2024-01-27T06:21:49;3.90;96.60
7666;DHT22;3875;46.562;4.898;2024-01-27T06:24:15;3.80;96.60
7666;DHT22;3875;46.562;4.898;2024-01-27T06:26:40;3.80;96.40
7666;DHT22;3875;46.562;4.898;2024-01-27T06:29:06;3.80;96.30
7666;DHT22;3875;46.562;4.898;2024-01-27T06:31:32;3.80;96.50
7666;DHT22;3875;46.562;4.898;2024-01-27T06:33:57;3.70;96.60
7666;DHT22;3875;46.562;4.898;2024-01-27T06:36:23;3.70;96.60
7666;DHT22;3875;46.562;4.898;2024-01-27T06:38:50;3.70;96.70
7666;DHT22;3875;46.562;4.898;2024-01-27T06:41:16;3.70;96.80
7666;DHT22;3875;46.562;4.898;2024-01-27T06:43:42;3.70;96.60
7666;DHT22;3875;46.562;4.898;2024-01-27T06:46:08;3.70;96.70
7666;DHT22;3875;46.562;4.898;2024-01-27T06:48:34;3.70;96.90
7666;DHT22;3875;46.562;4.898;2024-01-27T06:51:00;3.70;96.90
7666;DHT22;3875;46.562;4.898;2024-01-27T06:53:25;3.70;96.60
7666;DHT22;3875;46.562;4.898;2024-01-27T06:55:51;3.60;96.50
7666;DHT22;3875;46.562;4.898;2024-01-27T06:58:17;3.60;96.60
7666;DHT22;3875;46.562;4.898;2024-01-27T07:00:42;3.60;96.60
7666;DHT22;3875;46.562;4.898;2024-01-27T07:03:10;3.60;96.80
7666;DHT22;3875;46.562;4.898;2024-01-27T07:05:36;3.60;96.70
7666;DHT22;3875;46.562;4.898;2024-01-27T07:08:09;3.50;96.60
7666;DHT22;3875;46.562;4.898;2024-01-27T07:10:35;3.50;96.50
7666;DHT22;3875;46.562;4.898;2024-01-27T07:13:01;3.50;96.50
7666;DHT22;3875;46.562;4.898;2024-01-27T07:15:27;3.50;96.50
7666;DHT22;3875;46.562;4.898;2024-01-27T07:17:53;3.40;96.40
7666;DHT22;3875;46.562;4.898;2024-01-27T07:20:19;3.40;96.30
7666;DHT22;3875;46.562;4.898;2024-01-27T07:22:47;3.40;96.30
7666;DHT22;3875;46.562;4.898;2024-01-27T07:25:13;3.40;96.40
7666;DHT22;3875;46.562;4.898;2024-01-27T07:27:39;3.40;96.40
7666;DHT22;3875;46.562;4.898;2024-01-27T07:30:05;3.40;96.30
7666;DHT22;3875;46.562;4.898;2024-01-27T07:32:32;3.40;96.20
7666;DHT22;3875;46.562;4.898;2024-01-27T07:34:57;3.40;96.00
7666;DHT22;3875;46.562;4.898;2024-01-27T07:37:23;3.40;96.10
7666;DHT22;3875;46.562;4.898;2024-01-27T07:39:49;3.50;96.00
7666;DHT22;3875;46.562;4.898;2024-01-27T07:42:15;3.50;95.90
7666;DHT22;3875;46.562;4.898;2024-01-27T07:44:41;3.60;95.90
7666;DHT22;3875;46.562;4.898;2024-01-27T07:47:08;3.60;95.80
7666;DHT22;3875;46.562;4.898;2024-01-27T07:49:34;3.60;95.60
7666;DHT22;3875;46.562;4.898;2024-01-27T07:52:02;3.70;95.60
7666;DHT22;3875;46.562;4.898;2024-01-27T07:54:28;3.70;95.60
7666;DHT22;3875;46.562;4.898;2024-01-27T07:56:54;3.80;95.60
7666;DHT22;3875;46.562;4.898;2024-01-27T07:59:20;3.90;95.70
7666;DHT22;3875;46.562;4.898;2024-01-27T08:01:46;4.00;95.50
7666;DHT22;3875;46.562;4.898;2024-01-27T08:04:11;4.10;95.10
7666;DHT22;3875;46.562;4.898;2024-01-27T08:06:50;4.10;95.00
7666;DHT22;3875;46.562;4.898;2024-01-27T08:09:17;4.20;94.60
7666;DHT22;3875;46.562;4.898;2024-01-27T08:11:43;4.30;94.60
7666;DHT22;3875;46.562;4.898;2024-01-27T08:14:09;4.40;94.50
7666;DHT22;3875;46.562;4.898;2024-01-27T08:16:35;4.50;94.10
7666;DHT22;3875;46.562;4.898;2024-01-27T08:19:01;4.70;94.30
7666;DHT22;3875;46.562;4.898;2024-01-27T08:21:27;4.80;93.70
7666;DHT22;3875;46.562;4.898;2024-01-27T08:23:53;4.80;93.50
7666;DHT22;3875;46.562;4.898;2024-01-27T08:26:19;4.90;93.30
7666;DHT22;3875;46.562;4.898;2024-01-27T08:28:46;5.00;92.70
7666;DHT22;3875;46.562;4.898;2024-01-27T08:31:12;5.10;92.90
7666;DHT22;3875;46.562;4.898;2024-01-27T08:33:38;5.10;92.20
7666;DHT22;3875;46.562;4.898;2024-01-27T08:36:04;5.20;92.40
7666;DHT22;3875;46.562;4.898;2024-01-27T08:38:29;5.30;92.20
7666;DHT22;3875;46.562;4.898;2024-01-27T08:40:55;5.30;91.80
7666;DHT22;3875;46.562;4.898;2024-01-27T08:43:21;5.40;91.20
7666;DHT22;3875;46.562;4.898;2024-01-27T08:45:46;5.40;91.30
7666;DHT22;3875;46.562;4.898;2024-01-27T08:48:12;5.50;91.10
7666;DHT22;3875;46.562;4.898;2024-01-27T08:50:41;5.60;91.00
7666;DHT22;3875;46.562;4.898;2024-01-27T08:53:06;5.70;91.00
7666;DHT22;3875;46.562;4.898;2024-01-27T08:55:32;5.80;90.80
7666;DHT22;3875;46.562;4.898;2024-01-27T08:57:58;5.90;90.60
7666;DHT22;3875;46.562;4.898;2024-01-27T09:00:23;5.90;90.30
7666;DHT22;3875;46.562;4.898;2024-01-27T09:02:50;6.00;89.90
7666;DHT22;3875;46.562;4.898;2024-01-27T09:05:16;6.00;89.60
7666;DHT22;3875;46.562;4.898;2024-01-27T09:07:41;6.00;89.60
7666;DHT22;3875;46.562;4.898;2024-01-27T09:10:07;6.10;89.40
7666;DHT22;3875;46.562;4.898;2024-01-27T09:12:33;6.10;89.60
7666;DHT22;3875;46.562;4.898;2024-01-27T09:14:59;6.20;89.60
7666;DHT22;3875;46.562;4.898;2024-01-27T09:17:25;6.30;89.20
7666;DHT22;3875;46.562;4.898;2024-01-27T09:19:51;6.40;89.20
7666;DHT22;3875;46.562;4.898;2024-01-27T09:22:17;6.50;88.90
7666;DHT22;3875;46.562;4.898;2024-01-27T09:24:42;6.50;88.70
7666;DHT22;3875;46.562;4.898;2024-01-27T09:27:08;6.50;89.20
7666;DHT22;3875;46.562;4.898;2024-01-27T09:29:34;6.60;88.90
7666;DHT22;3875;46.562;4.898;2024-01-27T09:31:59;6.60;88.50
7666;DHT22;3875;46.562;4.898;2024-01-27T09:34:25;6.60;88.70
7666;DHT22;3875;46.562;4.898;2024-01-27T09:36:53;6.60;88.60
7666;DHT22;3875;46.562;4.898;2024-01-27T09:39:18;6.70;88.50
7666;DHT22;3875;46.562;4.898;2024-01-27T09:41:45;6.60;88.30
7666;DHT22;3875;46.562;4.898;2024-01-27T09:44:12;6.70;88.40
7666;DHT22;3875;46.562;4.898;2024-01-27T09:46:38;6.70;88.00
7666;DHT22;3875;46.562;4.898;2024-01-27T09:49:04;6.70;88.40
7666;DHT22;3875;46.562;4.898;2024-01-27T09:51:30;6.70;88.30
7666;DHT22;3875;46.562;4.898;2024-01-27T09:53:56;6.80;89.20
7666;DHT22;3875;46.562;4.898;2024-01-27T09:56:22;7.00;88.80
7666;DHT22;3875;46.562;4.898;2024-01-27T09:58:50;7.00;88.00
7666;DHT22;3875;46.562;4.898;2024-01-27T10:01:20;7.00;88.10
7666;DHT22;3875;46.562;4.898;2024-01-27T10:03:47;7.20;88.40
7666;DHT22;3875;46.562;4.898;2024-01-27T10:06:13;7.30;87.80
7666;DHT22;3875;46.562;4.898;2024-01-27T10:08:40;7.30;87.80
7666;DHT22;3875;46.562;4.898;2024-01-27T10:11:09;7.50;87.90
7666;DHT22;3875;46.562;4.898;2024-01-27T10:13:36;7.50;87.20
7666;DHT22;3875;46.562;4.898;2024-01-27T10:16:02;7.60;87.70
7666;DHT22;3875;46.562;4.898;2024-01-27T10:18:29;7.60;87.20
7666;DHT22;3875;46.562;4.898;2024-01-27T10:20:54;7.60;87.10
7666;DHT22;3875;46.562;4.898;2024-01-27T10:23:20;7.70;86.80
7666;DHT22;3875;46.562;4.898;2024-01-27T10:25:46;7.70;87.60
7666;DHT22;3875;46.562;4.898;2024-01-27T10:28:12;7.90;87.30
7666;DHT22;3875;46.562;4.898;2024-01-27T10:30:38;8.00;87.30
7666;DHT22;3875;46.562;4.898;2024-01-27T10:33:04;8.10;87.00
7666;DHT22;3875;46.562;4.898;2024-01-27T10:35:30;8.20;86.80
7666;DHT22;3875;46.562;4.898;2024-01-27T10:37:56;8.30;86.10
7666;DHT22;3875;46.562;4.898;2024-01-27T10:40:23;8.30;86.90
7666;DHT22;3875;46.562;4.898;2024-01-27T10:43:05;8.50;86.70
7666;DHT22;3875;46.562;4.898;2024-01-27T10:45:36;8.60;86.30
7666;DHT22;3875;46.562;4.898;2024-01-27T10:48:03;8.70;85.90
7666;DHT22;3875;46.562;4.898;2024-01-27T10:50:30;8.70;85.80
7666;DHT22;3875;46.562;4.898;2024-01-27T10:52:57;8.80;86.00
7666;DHT22;3875;46.562;4.898;2024-01-27T10:55:24;8.90;85.10
7666;DHT22;3875;46.562;4.898;2024-01-27T10:57:52;8.90;85.10
7666;DHT22;3875;46.562;4.898;2024-01-27T11:00:19;8.90;84.50
7666;DHT22;3875;46.562;4.898;2024-01-27T11:02:45;8.90;84.40
7666;DHT22;3875;46.562;4.898;2024-01-27T11:05:14;8.90;85.10
7666;DHT22;3875;46.562;4.898;2024-01-27T11:07:41;9.10;85.20
7666;DHT22;3875;46.562;4.898;2024-01-27T11:10:07;9.20;85.30
7666;DHT22;3875;46.562;4.898;2024-01-27T11:12:34;9.30;85.20
7666;DHT22;3875;46.562;4.898;2024-01-27T11:15:00;9.50;84.60
7666;DHT22;3875;46.562;4.898;2024-01-27T11:17:26;9.50;83.70
7666;DHT22;3875;46.562;4.898;2024-01-27T11:19:56;9.50;83.80
7666;DHT22;3875;46.562;4.898;2024-01-27T11:22:28;9.50;83.90
7666;DHT22;3875;46.562;4.898;2024-01-27T11:27:39;9.60;83.60
7666;DHT22;3875;46.562;4.898;2024-01-27T11:30:07;9.60;83.90
7666;DHT22;3875;46.562;4.898;2024-01-27T11:32:37;9.80;84.80
7666;DHT22;3875;46.562;4.898;2024-01-27T11:35:05;10.00;84.30
7666;DHT22;3875;46.562;4.898;2024-01-27T11:37:31;10.10;83.90
7666;DHT22;3875;46.562;4.898;2024-01-27T11:40:06;10.10;83.70
7666;DHT22;3875;46.562;4.898;2024-01-27T11:42:33;10.10;83.40
7666;DHT22;3875;46.562;4.898;2024-01-27T11:44:58;10.10;83.50
7666;DHT22;3875;46.562;4.898;2024-01-27T11:47:26;10.00;83.00
7666;DHT22;3875;46.562;4.898;2024-01-27T11:49:53;10.00;83.50
7666;DHT22;3875;46.562;4.898;2024-01-27T11:52:20;10.10;83.90
7666;DHT22;3875;46.562;4.898;2024-01-27T11:54:46;10.10;83.40
7666;DHT22;3875;46.562;4.898;2024-01-27T11:57:11;10.10;83.50
7666;DHT22;3875;46.562;4.898;2024-01-27T11:59:37;10.20;83.90
7666;DHT22;3875;46.562;4.898;2024-01-27T12:02:03;10.30;83.50
7666;DHT22;3875;46.562;4.898;2024-01-27T12:04:29;10.30;82.90
7666;DHT22;3875;46.562;4.898;2024-01-27T12:06:55;10.20;82.90
7666;DHT22;3875;46.562;4.898;2024-01-27T12:09:20;10.30;83.50
7666;DHT22;3875;46.562;4.898;2024-01-27T12:11:47;10.40;83.10
7666;DHT22;3875;46.562;4.898;2024-01-27T12:14:13;10.40;82.60
7666;DHT22;3875;46.562;4.898;2024-01-27T12:16:39;10.50;83.60
7666;DHT22;3875;46.562;4.898;2024-01-27T12:19:05;10.70;83.50
7666;DHT22;3875;46.562;4.898;2024-01-27T12:21:31;10.70;82.70
7666;DHT22;3875;46.562;4.898;2024-01-27T12:23:57;10.80;82.90
7666;DHT22;3875;46.562;4.898;2024-01-27T12:26:28;10.90;83.50
7666;DHT22;3875;46.562;4.898;2024-01-27T12:28:54;11.00;82.80
7666;DHT22;3875;46.562;4.898;2024-01-27T12:31:24;11.00;82.20
7666;DHT22;3875;46.562;4.898;2024-01-27T12:33:52;11.00;81.40
7666;DHT22;3875;46.562;4.898;2024-01-27T12:36:19;10.90;81.20
7666;DHT22;3875;46.562;4.898;2024-01-27T12:39:02;10.90;82.10
7666;DHT22;3875;46.562;4.898;2024-01-27T12:41:30;11.00;82.70
7666;DHT22;3875;46.562;4.898;2024-01-27T12:43:58;11.00;80.70
7666;DHT22;3875;46.562;4.898;2024-01-27T12:46:24;10.80;80.90
7666;DHT22;3875;46.562;4.898;2024-01-27T12:48:49;10.70;80.90
7666;DHT22;3875;46.562;4.898;2024-01-27T12:51:15;10.70;81.30
7666;DHT22;3875;46.562;4.898;2024-01-27T12:53:42;10.70;81.90
7666;DHT22;3875;46.562;4.898;2024-01-27T12:56:10;10.60;81.50
7666;DHT22;3875;46.562;4.898;2024-01-27T12:58:36;10.60;81.70
7666;DHT22;3875;46.562;4.898;2024-01-27T13:01:03;10.60;81.60
7666;DHT22;3875;46.562;4.898;2024-01-27T13:03:28;10.60;81.30
7666;DHT22;3875;46.562;4.898;2024-01-27T13:05:55;10.50;81.30
7666;DHT22;3875;46.562;4.898;2024-01-27T13:08:21;10.40;81.40
7666;DHT22;3875;46.562;4.898;2024-01-27T13:10:47;10.30;81.60
7666;DHT22;3875;46.562;4.898;2024-01-27T13:13:13;10.30;82.00
7666;DHT22;3875;46.562;4.898;2024-01-27T13:15:39;10.20;82.10
7666;DHT22;3875;46.562;4.898;2024-01-27T13:18:04;10.20;82.70
7666;DHT22;3875;46.562;4.898;2024-01-27T13:20:30;10.30;82.80
7666;DHT22;3875;46.562;4.898;2024-01-27T13:22:56;10.40;82.60
7666;DHT22;3875;46.562;4.898;2024-01-27T13:25:22;10.40;82.90
7666;DHT22;3875;46.562;4.898;2024-01-27T13:27:48;10.40;82.80
7666;DHT22;3875;46.562;4.898;2024-01-27T13:30:14;10.40;82.60
7666;DHT22;3875;46.562;4.898;2024-01-27T13:32:39;10.40;82.90
7666;DHT22;3875;46.562;4.898;2024-01-27T13:35:06;10.40;81.40
7666;DHT22;3875;46.562;4.898;2024-01-27T13:37:33;10.20;81.90
7666;DHT22;3875;46.562;4.898;2024-01-27T13:40:03;10.20;83.00
7666;DHT22;3875;46.562;4.898;2024-01-27T13:42:30;10.20;82.90
7666;DHT22;3875;46.562;4.898;2024-01-27T13:44:55;10.10;82.90
7666;DHT22;3875;46.562;4.898;2024-01-27T13:47:21;10.00;83.20
7666;DHT22;3875;46.562;4.898;2024-01-27T13:49:47;10.00;83.60
7666;DHT22;3875;46.562;4.898;2024-01-27T13:52:13;10.10;84.20
7666;DHT22;3875;46.562;4.898;2024-01-27T13:54:39;10.20;84.40
7666;DHT22;3875;46.562;4.898;2024-01-27T13:57:04;10.30;83.80
7666;DHT22;3875;46.562;4.898;2024-01-27T13:59:31;10.30;83.90
7666;DHT22;3875;46.562;4.898;2024-01-27T14:01:57;10.30;83.30
7666;DHT22;3875;46.562;4.898;2024-01-27T14:04:24;10.20;83.20
7666;DHT22;3875;46.562;4.898;2024-01-27T14:06:52;10.20;83.30
7666;DHT22;3875;46.562;4.898;2024-01-27T14:09:28;10.10;83.10
7666;DHT22;3875;46.562;4.898;2024-01-27T14:11:54;10.10;82.60
7666;DHT22;3875;46.562;4.898;2024-01-27T14:14:19;10.00;82.90
7666;DHT22;3875;46.562;4.898;2024-01-27T14:16:46;10.00;83.10
7666;DHT22;3875;46.562;4.898;2024-01-27T14:19:12;10.00;83.10
7666;DHT22;3875;46.562;4.898;2024-01-27T14:21:38;9.90;82.50
7666;DHT22;3875;46.562;4.898;2024-01-27T14:24:06;9.90;81.60
7666;DHT22;3875;46.562;4.898;2024-01-27T14:26:32;9.80;82.00
7666;DHT22;3875;46.562;4.898;2024-01-27T14:28:58;9.80;82.50
7666;DHT22;3875;46.562;4.898;2024-01-27T14:31:24;9.80;82.90
7666;DHT22;3875;46.562;4.898;2024-01-27T14:33:50;9.90;82.90
7666;DHT22;3875;46.562;4.898;2024-01-27T14:36:16;9.90;83.50
7666;DHT22;3875;46.562;4.898;2024-01-27T14:38:41;10.00;83.30
7666;DHT22;3875;46.562;4.898;2024-01-27T14:41:10;10.00;83.70
7666;DHT22;3875;46.562;4.898;2024-01-27T14:43:39;9.90;84.90
7666;DHT22;3875;46.562;4.898;2024-01-27T14:46:05;9.80;85.60
7666;DHT22;3875;46.562;4.898;2024-01-27T14:48:31;9.70;85.90
7666;DHT22;3875;46.562;4.898;2024-01-27T14:50:57;9.70;86.40
7666;DHT22;3875;46.562;4.898;2024-01-27T14:53:28;9.60;86.60
7666;DHT22;3875;46.562;4.898;2024-01-27T14:55:57;9.50;86.80
7666;DHT22;3875;46.562;4.898;2024-01-27T14:58:23;9.40;87.00
7666;DHT22;3875;46.562;4.898;2024-01-27T15:00:49;9.30;87.30
7666;DHT22;3875;46.562;4.898;2024-01-27T15:03:21;9.20;87.50
7666;DHT22;3875;46.562;4.898;2024-01-27T15:05:47;9.10;87.80
7666;DHT22;3875;46.562;4.898;2024-01-27T15:08:15;9.00;88.00
7666;DHT22;3875;46.562;4.898;2024-01-27T15:10:41;9.00;87.90
7666;DHT22;3875;46.562;4.898;2024-01-27T15:13:09;8.90;87.90
7666;DHT22;3875;46.562;4.898;2024-01-27T15:15:36;8.70;88.10
7666;DHT22;3875;46.562;4.898;2024-01-27T15:18:02;8.50;88.50
7666;DHT22;3875;46.562;4.898;2024-01-27T15:20:28;8.30;89.00
7666;DHT22;3875;46.562;4.898;2024-01-27T15:22:54;8.30;89.50
7666;DHT22;3875;46.562;4.898;2024-01-27T15:25:20;8.20;89.80
7666;DHT22;3875;46.562;4.898;2024-01-27T15:27:47;8.20;90.00
7666;DHT22;3875;46.562;4.898;2024-01-27T15:30:13;8.20;90.10
7666;DHT22;3875;46.562;4.898;2024-01-27T15:32:39;8.20;90.10
7666;DHT22;3875;46.562;4.898;2024-01-27T15:35:06;8.20;90.20
7666;DHT22;3875;46.562;4.898;2024-01-27T15:37:32;8.30;90.20
7666;DHT22;3875;46.562;4.898;2024-01-27T15:39:57;8.30;90.00
7666;DHT22;3875;46.562;4.898;2024-01-27T15:42:23;8.20;89.80
7666;DHT22;3875;46.562;4.898;2024-01-27T15:44:49;8.10;89.90
7666;DHT22;3875;46.562;4.898;2024-01-27T15:47:14;7.90;90.20
7666;DHT22;3875;46.562;4.898;2024-01-27T15:49:40;7.70;90.50
7666;DHT22;3875;46.562;4.898;2024-01-27T15:52:07;7.50;91.10
7666;DHT22;3875;46.562;4.898;2024-01-27T15:54:33;7.40;91.40
7666;DHT22;3875;46.562;4.898;2024-01-27T15:56:59;7.30;91.80
7666;DHT22;3875;46.562;4.898;2024-01-27T15:59:24;7.30;92.00
7666;DHT22;3875;46.562;4.898;2024-01-27T16:01:50;7.30;92.10
7666;DHT22;3875;46.562;4.898;2024-01-27T16:04:16;7.30;92.30
7666;DHT22;3875;46.562;4.898;2024-01-27T16:06:41;7.30;92.20
7666;DHT22;3875;46.562;4.898;2024-01-27T16:09:07;7.30;92.10
7666;DHT22;3875;46.562;4.898;2024-01-27T16:11:33;7.30;92.30